Adin, California
Current Conditions -  °F | °C
As of 11:55 PM on Friday 24 Oct 2014 (Local Time) from KAAT Reporting Station
Clear Clear  
Wind Chill: 14°   Ceiling: Unl
Heat Index: 14°   Visibility: 10mi
Dew Point: -2°   Wind: 10mph
Humidity: 34%   Direction: 180°S
Pressure: 29.91"   Gusts: NA
Location:  41.19°N, 120.95°W
Report Text: KAAT 250655Z AUTO 18009KT 10SM CLR 14/M02 A2991 RMK AO2 SLP095 T01391017
Loading
Personal Weather Stations






























Interactive Weather Map
Tropical Storm Tracking
New forecast layout! Learn more

10-Day Weather Forecast

Advertisements
Track Severe Weather on mobile